アトランタ の空港の天気 - METARとTAF

ハーツフィールド・ジャクソン・アトランタ国際空港 ( KATL / ATL ) - アメリカ ジョージア州アトランタ
飛行場実況気象(Metar)
観測時間11/30 14:52 EST (11/30 19:52 UTC)
風向・風速西 7m/s 瞬間風速12m/s
視程10km以上
天気現象弱い雨
全天の8割程度の雲 雲底高度 490m
全天を覆う雲 雲底高度 730m
気温6.1℃
湿度73%
気圧1009.9hPa
METARKATL 301952Z 28014G24KT 9SM -RA BKN016 OVC024 06/02 A2982 RMK AO2 RAE33B49 SLP099 PCPN VRY LGT P0000 T00610017
過去の天気等 Google飛行場航空写真 Wunderground天気予報

過去48時間のMETAR

飛行場予報(TAF)
発表時間: 11/30 14:40 EST (11/30 19:40 UTC)
予報対象時間: 30日15時 EST ~ 1日19時 EST
風向・風速西北西 7m/s 瞬間風速 12m/s
視程10km以上
天気現象周辺でしゅう雨
全天を覆う雲 雲底高度 610m
30日16時 EST から
風向・風速西北西 7m/s 瞬間風速 12m/s
視程10km以上
全天を覆う雲 雲底高度 610m
1日1時 EST から
風向・風速西北西 7m/s 瞬間風速 11m/s
視程10km以上
全天の8割程度の雲 雲底高度 910m
1日5時 EST から
風向・風速西北西 6m/s 瞬間風速 10m/s
視程10km以上
全天の4割程度の雲 雲底高度 1220m
1日10時 EST から
風向・風速西北西 6m/s 瞬間風速 10m/s
視程10km以上
なし
KATL 301940Z 3020/0124 29014G23KT P6SM VCSH OVC020
FM302100 29014G23KT P6SM OVC020
FM010600 29013G21KT P6SM BKN030
FM011000 29012G20KT P6SM SCT040
FM011500 30012G20KT P6SM SKC